sensor_id;sensor_type;location;lat;lon;timestamp;P1;durP1;ratioP1;P2;durP2;ratioP2
8323;SDS011;4199;50.802;6.772;2023-05-10T00:02:18;7.37;;;6.67;;
8323;SDS011;4199;50.802;6.772;2023-05-10T00:04:45;7.13;;;6.50;;
8323;SDS011;4199;50.802;6.772;2023-05-10T00:07:11;6.90;;;6.30;;
8323;SDS011;4199;50.802;6.772;2023-05-10T00:09:37;6.73;;;6.13;;
8323;SDS011;4199;50.802;6.772;2023-05-10T00:12:04;6.30;;;5.80;;
8323;SDS011;4199;50.802;6.772;2023-05-10T00:14:30;6.27;;;5.77;;
8323;SDS011;4199;50.802;6.772;2023-05-10T00:16:57;5.90;;;5.40;;
8323;SDS011;4199;50.802;6.772;2023-05-10T00:19:23;6.00;;;5.50;;
8323;SDS011;4199;50.802;6.772;2023-05-10T00:21:49;5.60;;;5.20;;
8323;SDS011;4199;50.802;6.772;2023-05-10T00:24:16;6.07;;;5.57;;
8323;SDS011;4199;50.802;6.772;2023-05-10T00:26:42;6.03;;;5.53;;
8323;SDS011;4199;50.802;6.772;2023-05-10T00:29:08;6.53;;;5.93;;
8323;SDS011;4199;50.802;6.772;2023-05-10T00:31:34;5.77;;;5.27;;
8323;SDS011;4199;50.802;6.772;2023-05-10T00:34:01;6.33;;;5.83;;
8323;SDS011;4199;50.802;6.772;2023-05-10T00:36:27;6.57;;;5.80;;
8323;SDS011;4199;50.802;6.772;2023-05-10T00:38:54;7.10;;;6.50;;
8323;SDS011;4199;50.802;6.772;2023-05-10T00:41:20;7.73;;;6.60;;
8323;SDS011;4199;50.802;6.772;2023-05-10T00:43:47;7.00;;;6.40;;
8323;SDS011;4199;50.802;6.772;2023-05-10T00:46:14;7.47;;;6.77;;
8323;SDS011;4199;50.802;6.772;2023-05-10T00:48:41;6.87;;;6.27;;
8323;SDS011;4199;50.802;6.772;2023-05-10T00:51:08;7.10;;;6.40;;
8323;SDS011;4199;50.802;6.772;2023-05-10T00:53:34;6.70;;;6.10;;
8323;SDS011;4199;50.802;6.772;2023-05-10T00:56:01;6.70;;;6.00;;
8323;SDS011;4199;50.802;6.772;2023-05-10T00:58:29;7.37;;;6.67;;
8323;SDS011;4199;50.802;6.772;2023-05-10T01:00:57;6.33;;;5.73;;
8323;SDS011;4199;50.802;6.772;2023-05-10T01:03:24;6.10;;;5.60;;
8323;SDS011;4199;50.802;6.772;2023-05-10T01:05:51;9.80;;;5.40;;
8323;SDS011;4199;50.802;6.772;2023-05-10T01:08:17;5.53;;;5.03;;
8323;SDS011;4199;50.802;6.772;2023-05-10T01:10:43;5.13;;;4.60;;
8323;SDS011;4199;50.802;6.772;2023-05-10T01:13:10;5.30;;;4.80;;
8323;SDS011;4199;50.802;6.772;2023-05-10T01:15:37;4.50;;;4.10;;
8323;SDS011;4199;50.802;6.772;2023-05-10T01:18:03;4.77;;;4.37;;
8323;SDS011;4199;50.802;6.772;2023-05-10T01:20:32;3.83;;;3.53;;
8323;SDS011;4199;50.802;6.772;2023-05-10T01:25:52;4.00;;;3.70;;
8323;SDS011;4199;50.802;6.772;2023-05-10T01:35:55;4.80;;;4.23;;
8323;SDS011;4199;50.802;6.772;2023-05-10T01:43:48;7.13;;;5.53;;
8323;SDS011;4199;50.802;6.772;2023-05-10T01:46:17;6.70;;;6.07;;
8323;SDS011;4199;50.802;6.772;2023-05-10T01:48:47;8.13;;;7.23;;
8323;SDS011;4199;50.802;6.772;2023-05-10T01:51:15;8.37;;;7.57;;
8323;SDS011;4199;50.802;6.772;2023-05-10T01:53:44;8.80;;;7.90;;
8323;SDS011;4199;50.802;6.772;2023-05-10T01:56:10;9.20;;;7.93;;
8323;SDS011;4199;50.802;6.772;2023-05-10T01:58:38;9.40;;;8.40;;
8323;SDS011;4199;50.802;6.772;2023-05-10T02:01:06;9.57;;;8.37;;
8323;SDS011;4199;50.802;6.772;2023-05-10T02:03:33;10.70;;;8.80;;
8323;SDS011;4199;50.802;6.772;2023-05-10T02:06:01;10.93;;;8.83;;
8323;SDS011;4199;50.802;6.772;2023-05-10T02:08:28;9.60;;;8.57;;
8323;SDS011;4199;50.802;6.772;2023-05-10T02:10:55;10.37;;;9.00;;
8323;SDS011;4199;50.802;6.772;2023-05-10T02:13:23;10.97;;;9.47;;
8323;SDS011;4199;50.802;6.772;2023-05-10T02:15:50;11.73;;;9.97;;
8323;SDS011;4199;50.802;6.772;2023-05-10T02:18:17;10.87;;;9.27;;
8323;SDS011;4199;50.802;6.772;2023-05-10T02:20:47;10.47;;;9.03;;
8323;SDS011;4199;50.802;6.772;2023-05-10T02:23:14;10.90;;;9.33;;
8323;SDS011;4199;50.802;6.772;2023-05-10T02:25:43;9.97;;;8.67;;
8323;SDS011;4199;50.802;6.772;2023-05-10T02:28:10;9.47;;;8.43;;
8323;SDS011;4199;50.802;6.772;2023-05-10T02:30:37;9.90;;;8.80;;
8323;SDS011;4199;50.802;6.772;2023-05-10T02:33:04;10.53;;;8.53;;
8323;SDS011;4199;50.802;6.772;2023-05-10T02:35:31;10.10;;;8.80;;
8323;SDS011;4199;50.802;6.772;2023-05-10T02:37:59;10.80;;;9.13;;
8323;SDS011;4199;50.802;6.772;2023-05-10T02:40:26;10.57;;;9.30;;
8323;SDS011;4199;50.802;6.772;2023-05-10T02:42:54;14.17;;;11.03;;
8323;SDS011;4199;50.802;6.772;2023-05-10T02:45:21;13.03;;;10.70;;
8323;SDS011;4199;50.802;6.772;2023-05-10T02:47:49;14.50;;;10.77;;
8323;SDS011;4199;50.802;6.772;2023-05-10T02:50:16;14.23;;;10.60;;
8323;SDS011;4199;50.802;6.772;2023-05-10T02:52:44;14.40;;;10.93;;
8323;SDS011;4199;50.802;6.772;2023-05-10T02:55:11;13.70;;;11.20;;
8323;SDS011;4199;50.802;6.772;2023-05-10T02:57:42;16.07;;;11.83;;
8323;SDS011;4199;50.802;6.772;2023-05-10T03:00:09;15.03;;;12.23;;
8323;SDS011;4199;50.802;6.772;2023-05-10T03:02:35;16.57;;;12.50;;
8323;SDS011;4199;50.802;6.772;2023-05-10T03:05:02;15.20;;;11.43;;
8323;SDS011;4199;50.802;6.772;2023-05-10T03:07:29;12.47;;;10.70;;
8323;SDS011;4199;50.802;6.772;2023-05-10T03:09:55;15.13;;;10.57;;
8323;SDS011;4199;50.802;6.772;2023-05-10T03:12:33;15.27;;;10.33;;
8323;SDS011;4199;50.802;6.772;2023-05-10T03:15:11;17.67;;;10.87;;
8323;SDS011;4199;50.802;6.772;2023-05-10T03:20:06;13.80;;;11.00;;
8323;SDS011;4199;50.802;6.772;2023-05-10T03:22:45;14.90;;;11.00;;
8323;SDS011;4199;50.802;6.772;2023-05-10T03:25:12;15.30;;;11.17;;
8323;SDS011;4199;50.802;6.772;2023-05-10T03:27:42;16.87;;;12.13;;
8323;SDS011;4199;50.802;6.772;2023-05-10T03:30:12;14.73;;;11.83;;
8323;SDS011;4199;50.802;6.772;2023-05-10T03:32:39;17.20;;;13.40;;
8323;SDS011;4199;50.802;6.772;2023-05-10T03:35:12;17.97;;;13.63;;
8323;SDS011;4199;50.802;6.772;2023-05-10T03:37:39;17.70;;;13.47;;
8323;SDS011;4199;50.802;6.772;2023-05-10T03:40:06;17.57;;;13.93;;
8323;SDS011;4199;50.802;6.772;2023-05-10T03:42:32;16.80;;;13.80;;
8323;SDS011;4199;50.802;6.772;2023-05-10T03:44:58;17.87;;;14.53;;
8323;SDS011;4199;50.802;6.772;2023-05-10T03:47:25;17.77;;;14.47;;
8323;SDS011;4199;50.802;6.772;2023-05-10T03:49:52;18.40;;;14.60;;
8323;SDS011;4199;50.802;6.772;2023-05-10T03:52:18;19.17;;;15.57;;
8323;SDS011;4199;50.802;6.772;2023-05-10T03:54:44;18.53;;;15.53;;
8323;SDS011;4199;50.802;6.772;2023-05-10T03:57:11;17.63;;;14.63;;
8323;SDS011;4199;50.802;6.772;2023-05-10T03:59:37;18.30;;;14.97;;
8323;SDS011;4199;50.802;6.772;2023-05-10T04:02:03;18.57;;;14.93;;
8323;SDS011;4199;50.802;6.772;2023-05-10T04:04:29;18.53;;;14.27;;
8323;SDS011;4199;50.802;6.772;2023-05-10T04:06:56;19.13;;;15.20;;
8323;SDS011;4199;50.802;6.772;2023-05-10T04:09:22;19.03;;;15.47;;
8323;SDS011;4199;50.802;6.772;2023-05-10T04:11:48;20.60;;;16.80;;
8323;SDS011;4199;50.802;6.772;2023-05-10T04:14:15;18.23;;;15.20;;
8323;SDS011;4199;50.802;6.772;2023-05-10T04:16:41;16.93;;;13.90;;
8323;SDS011;4199;50.802;6.772;2023-05-10T04:19:07;16.53;;;14.40;;
8323;SDS011;4199;50.802;6.772;2023-05-10T04:21:34;19.10;;;14.57;;
8323;SDS011;4199;50.802;6.772;2023-05-10T04:24:00;18.30;;;14.80;;
8323;SDS011;4199;50.802;6.772;2023-05-10T04:26:26;16.93;;;14.20;;
8323;SDS011;4199;50.802;6.772;2023-05-10T04:28:53;17.57;;;13.63;;
8323;SDS011;4199;50.802;6.772;2023-05-10T04:31:19;17.73;;;13.87;;
8323;SDS011;4199;50.802;6.772;2023-05-10T04:33:45;14.90;;;13.07;;
8323;SDS011;4199;50.802;6.772;2023-05-10T04:36:12;17.57;;;13.83;;
8323;SDS011;4199;50.802;6.772;2023-05-10T04:38:38;18.63;;;13.60;;
8323;SDS011;4199;50.802;6.772;2023-05-10T04:41:08;15.00;;;12.70;;
8323;SDS011;4199;50.802;6.772;2023-05-10T04:43:36;16.43;;;13.53;;
8323;SDS011;4199;50.802;6.772;2023-05-10T04:46:03;15.87;;;13.73;;
8323;SDS011;4199;50.802;6.772;2023-05-10T04:48:30;17.97;;;13.67;;
8323;SDS011;4199;50.802;6.772;2023-05-10T04:50:56;69.77;;;53.10;;
8323;SDS011;4199;50.802;6.772;2023-05-10T04:53:23;19.97;;;15.60;;
8323;SDS011;4199;50.802;6.772;2023-05-10T04:55:49;18.83;;;14.93;;
8323;SDS011;4199;50.802;6.772;2023-05-10T04:58:15;17.57;;;14.90;;
8323;SDS011;4199;50.802;6.772;2023-05-10T05:00:42;18.67;;;15.37;;
8323;SDS011;4199;50.802;6.772;2023-05-10T05:03:08;20.47;;;14.03;;
8323;SDS011;4199;50.802;6.772;2023-05-10T05:05:35;19.93;;;15.17;;
8323;SDS011;4199;50.802;6.772;2023-05-10T05:08:02;19.77;;;15.80;;
8323;SDS011;4199;50.802;6.772;2023-05-10T05:10:28;18.13;;;15.17;;
8323;SDS011;4199;50.802;6.772;2023-05-10T05:12:55;20.03;;;15.57;;
8323;SDS011;4199;50.802;6.772;2023-05-10T05:15:21;21.60;;;16.13;;
8323;SDS011;4199;50.802;6.772;2023-05-10T05:17:47;23.23;;;16.23;;
8323;SDS011;4199;50.802;6.772;2023-05-10T05:20:14;20.47;;;15.73;;
8323;SDS011;4199;50.802;6.772;2023-05-10T05:22:40;20.37;;;15.57;;
8323;SDS011;4199;50.802;6.772;2023-05-10T05:25:07;18.80;;;15.70;;
8323;SDS011;4199;50.802;6.772;2023-05-10T05:27:33;19.90;;;15.67;;
8323;SDS011;4199;50.802;6.772;2023-05-10T05:29:59;17.47;;;14.33;;
8323;SDS011;4199;50.802;6.772;2023-05-10T05:32:26;18.73;;;13.70;;
8323;SDS011;4199;50.802;6.772;2023-05-10T05:34:52;19.47;;;14.73;;
8323;SDS011;4199;50.802;6.772;2023-05-10T05:37:19;16.57;;;13.87;;
8323;SDS011;4199;50.802;6.772;2023-05-10T05:39:47;16.30;;;13.43;;
8323;SDS011;4199;50.802;6.772;2023-05-10T05:42:13;80.10;;;61.00;;
8323;SDS011;4199;50.802;6.772;2023-05-10T05:44:39;76.10;;;61.73;;
8323;SDS011;4199;50.802;6.772;2023-05-10T05:47:06;18.50;;;14.87;;
8323;SDS011;4199;50.802;6.772;2023-05-10T05:49:32;28.07;;;18.20;;
8323;SDS011;4199;50.802;6.772;2023-05-10T05:51:59;23.10;;;15.57;;
8323;SDS011;4199;50.802;6.772;2023-05-10T05:54:26;17.70;;;13.70;;
8323;SDS011;4199;50.802;6.772;2023-05-10T05:56:54;12.07;;;10.83;;
8323;SDS011;4199;50.802;6.772;2023-05-10T05:59:20;13.37;;;10.97;;
8323;SDS011;4199;50.802;6.772;2023-05-10T06:01:46;14.27;;;11.43;;
8323;SDS011;4199;50.802;6.772;2023-05-10T06:04:13;13.53;;;11.07;;
8323;SDS011;4199;50.802;6.772;2023-05-10T06:06:39;12.43;;;10.30;;
8323;SDS011;4199;50.802;6.772;2023-05-10T06:09:05;14.77;;;12.30;;
8323;SDS011;4199;50.802;6.772;2023-05-10T06:11:32;31.80;;;25.77;;
8323;SDS011;4199;50.802;6.772;2023-05-10T06:13:58;10.70;;;7.07;;
8323;SDS011;4199;50.802;6.772;2023-05-10T06:16:25;9.97;;;6.67;;
8323;SDS011;4199;50.802;6.772;2023-05-10T06:18:52;8.83;;;7.00;;
8323;SDS011;4199;50.802;6.772;2023-05-10T06:21:18;8.53;;;5.73;;
8323;SDS011;4199;50.802;6.772;2023-05-10T06:23:44;8.83;;;5.90;;
8323;SDS011;4199;50.802;6.772;2023-05-10T06:26:11;8.77;;;6.27;;
8323;SDS011;4199;50.802;6.772;2023-05-10T06:28:37;7.87;;;6.20;;
8323;SDS011;4199;50.802;6.772;2023-05-10T06:31:06;7.60;;;6.20;;
8323;SDS011;4199;50.802;6.772;2023-05-10T06:33:33;10.10;;;6.40;;
8323;SDS011;4199;50.802;6.772;2023-05-10T06:35:59;8.73;;;6.27;;
8323;SDS011;4199;50.802;6.772;2023-05-10T06:38:26;8.87;;;6.90;;
8323;SDS011;4199;50.802;6.772;2023-05-10T06:40:52;8.53;;;6.17;;
8323;SDS011;4199;50.802;6.772;2023-05-10T06:43:19;10.20;;;6.53;;
8323;SDS011;4199;50.802;6.772;2023-05-10T06:45:45;75.00;;;56.70;;
8323;SDS011;4199;50.802;6.772;2023-05-10T06:48:11;15.87;;;10.37;;
8323;SDS011;4199;50.802;6.772;2023-05-10T06:50:38;9.53;;;6.07;;
8323;SDS011;4199;50.802;6.772;2023-05-10T06:53:04;8.20;;;6.30;;
8323;SDS011;4199;50.802;6.772;2023-05-10T06:55:30;9.00;;;5.70;;
8323;SDS011;4199;50.802;6.772;2023-05-10T06:57:57;8.43;;;6.17;;
8323;SDS011;4199;50.802;6.772;2023-05-10T07:00:23;8.20;;;5.70;;
8323;SDS011;4199;50.802;6.772;2023-05-10T07:02:50;7.07;;;5.87;;
8323;SDS011;4199;50.802;6.772;2023-05-10T07:05:17;8.17;;;5.67;;
8323;SDS011;4199;50.802;6.772;2023-05-10T07:07:47;7.47;;;5.73;;
8323;SDS011;4199;50.802;6.772;2023-05-10T07:10:13;10.47;;;5.60;;
8323;SDS011;4199;50.802;6.772;2023-05-10T07:12:40;6.83;;;5.97;;
8323;SDS011;4199;50.802;6.772;2023-05-10T07:15:06;6.83;;;4.93;;
8323;SDS011;4199;50.802;6.772;2023-05-10T07:17:33;9.17;;;7.60;;
8323;SDS011;4199;50.802;6.772;2023-05-10T07:20:00;11.00;;;6.80;;
8323;SDS011;4199;50.802;6.772;2023-05-10T07:22:26;7.37;;;5.40;;
8323;SDS011;4199;50.802;6.772;2023-05-10T07:24:53;6.40;;;5.00;;
8323;SDS011;4199;50.802;6.772;2023-05-10T07:27:19;6.47;;;4.63;;
8323;SDS011;4199;50.802;6.772;2023-05-10T07:29:45;6.17;;;4.70;;
8323;SDS011;4199;50.802;6.772;2023-05-10T07:32:12;7.90;;;4.70;;
8323;SDS011;4199;50.802;6.772;2023-05-10T07:34:38;5.53;;;4.83;;
8323;SDS011;4199;50.802;6.772;2023-05-10T07:37:04;5.50;;;4.40;;
8323;SDS011;4199;50.802;6.772;2023-05-10T07:39:32;6.77;;;4.07;;
8323;SDS011;4199;50.802;6.772;2023-05-10T07:41:58;5.03;;;3.97;;
8323;SDS011;4199;50.802;6.772;2023-05-10T07:44:25;4.70;;;3.80;;
8323;SDS011;4199;50.802;6.772;2023-05-10T07:46:51;4.80;;;3.67;;
8323;SDS011;4199;50.802;6.772;2023-05-10T07:49:18;4.17;;;3.53;;
8323;SDS011;4199;50.802;6.772;2023-05-10T07:51:44;6.33;;;3.67;;
8323;SDS011;4199;50.802;6.772;2023-05-10T07:54:10;5.50;;;3.60;;
8323;SDS011;4199;50.802;6.772;2023-05-10T07:56:37;5.63;;;3.33;;
8323;SDS011;4199;50.802;6.772;2023-05-10T07:59:03;3.10;;;2.50;;
8323;SDS011;4199;50.802;6.772;2023-05-10T08:01:31;2.50;;;2.20;;
8323;SDS011;4199;50.802;6.772;2023-05-10T08:04:01;1.70;;;1.60;;
8323;SDS011;4199;50.802;6.772;2023-05-10T08:06:28;1.10;;;1.00;;
8323;SDS011;4199;50.802;6.772;2023-05-10T08:08:55;0.60;;;0.60;;
8323;SDS011;4199;50.802;6.772;2023-05-10T08:11:22;0.90;;;0.90;;
8323;SDS011;4199;50.802;6.772;2023-05-10T08:13:49;0.90;;;0.90;;
8323;SDS011;4199;50.802;6.772;2023-05-10T08:16:16;0.50;;;0.50;;
8323;SDS011;4199;50.802;6.772;2023-05-10T08:18:43;0.60;;;0.60;;
8323;SDS011;4199;50.802;6.772;2023-05-10T08:21:10;7.93;;;7.17;;
8323;SDS011;4199;50.802;6.772;2023-05-10T08:23:37;1.77;;;1.60;;
8323;SDS011;4199;50.802;6.772;2023-05-10T08:26:03;1.10;;;1.10;;
8323;SDS011;4199;50.802;6.772;2023-05-10T08:28:30;1.17;;;0.90;;
8323;SDS011;4199;50.802;6.772;2023-05-10T08:30:56;2.27;;;0.63;;
8323;SDS011;4199;50.802;6.772;2023-05-10T08:33:22;0.90;;;0.77;;
8323;SDS011;4199;50.802;6.772;2023-05-10T08:35:49;0.70;;;0.70;;
8323;SDS011;4199;50.802;6.772;2023-05-10T08:38:15;1.13;;;0.70;;
8323;SDS011;4199;50.802;6.772;2023-05-10T08:40:42;0.80;;;0.80;;
8323;SDS011;4199;50.802;6.772;2023-05-10T08:43:09;2.13;;;0.90;;
8323;SDS011;4199;50.802;6.772;2023-05-10T08:45:37;1.13;;;1.03;;
8323;SDS011;4199;50.802;6.772;2023-05-10T08:48:07;1.10;;;1.10;;
8323;SDS011;4199;50.802;6.772;2023-05-10T08:50:38;1.40;;;1.30;;
8323;SDS011;4199;50.802;6.772;2023-05-10T08:53:05;1.60;;;1.50;;
8323;SDS011;4199;50.802;6.772;2023-05-10T08:55:32;1.60;;;1.50;;
8323;SDS011;4199;50.802;6.772;2023-05-10T08:57:59;1.30;;;1.30;;
8323;SDS011;4199;50.802;6.772;2023-05-10T09:00:26;1.57;;;1.47;;
8323;SDS011;4199;50.802;6.772;2023-05-10T09:02:52;1.73;;;1.63;;
8323;SDS011;4199;50.802;6.772;2023-05-10T09:05:19;2.90;;;2.70;;
8323;SDS011;4199;50.802;6.772;2023-05-10T09:07:46;2.40;;;1.97;;
8323;SDS011;4199;50.802;6.772;2023-05-10T09:10:12;4.73;;;2.30;;
8323;SDS011;4199;50.802;6.772;2023-05-10T09:12:39;2.30;;;2.10;;
8323;SDS011;4199;50.802;6.772;2023-05-10T09:15:06;2.53;;;2.30;;
8323;SDS011;4199;50.802;6.772;2023-05-10T09:17:33;3.10;;;2.70;;
8323;SDS011;4199;50.802;6.772;2023-05-10T09:19:59;4.97;;;3.70;;
8323;SDS011;4199;50.802;6.772;2023-05-10T09:22:26;7.33;;;5.50;;
8323;SDS011;4199;50.802;6.772;2023-05-10T09:27:31;11.57;;;7.10;;
8323;SDS011;4199;50.802;6.772;2023-05-10T09:29:57;11.10;;;7.50;;
8323;SDS011;4199;50.802;6.772;2023-05-10T09:32:39;11.10;;;8.10;;
8323;SDS011;4199;50.802;6.772;2023-05-10T09:35:07;13.10;;;10.10;;
8323;SDS011;4199;50.802;6.772;2023-05-10T09:37:33;10.77;;;7.73;;
8323;SDS011;4199;50.802;6.772;2023-05-10T09:39:59;10.93;;;7.43;;
8323;SDS011;4199;50.802;6.772;2023-05-10T09:42:25;10.13;;;7.13;;
8323;SDS011;4199;50.802;6.772;2023-05-10T09:44:52;9.57;;;5.80;;
8323;SDS011;4199;50.802;6.772;2023-05-10T09:47:18;8.13;;;6.03;;
8323;SDS011;4199;50.802;6.772;2023-05-10T09:49:52;8.90;;;6.67;;
8323;SDS011;4199;50.802;6.772;2023-05-10T09:52:18;10.00;;;6.57;;
8323;SDS011;4199;50.802;6.772;2023-05-10T09:54:45;7.70;;;6.40;;
8323;SDS011;4199;50.802;6.772;2023-05-10T09:57:21;5.07;;;4.50;;
8323;SDS011;4199;50.802;6.772;2023-05-10T09:59:49;5.60;;;4.00;;
8323;SDS011;4199;50.802;6.772;2023-05-10T10:02:16;3.50;;;3.20;;
8323;SDS011;4199;50.802;6.772;2023-05-10T10:04:43;3.40;;;3.03;;
8323;SDS011;4199;50.802;6.772;2023-05-10T10:07:09;2.07;;;1.97;;
8323;SDS011;4199;50.802;6.772;2023-05-10T10:09:36;1.70;;;1.60;;
8323;SDS011;4199;50.802;6.772;2023-05-10T10:12:02;1.57;;;1.47;;
8323;SDS011;4199;50.802;6.772;2023-05-10T10:14:29;1.33;;;1.33;;
8323;SDS011;4199;50.802;6.772;2023-05-10T10:16:55;2.33;;;1.40;;
8323;SDS011;4199;50.802;6.772;2023-05-10T10:19:33;1.40;;;1.40;;
8323;SDS011;4199;50.802;6.772;2023-05-10T10:22:01;2.30;;;1.40;;
8323;SDS011;4199;50.802;6.772;2023-05-10T10:24:29;1.43;;;1.37;;
8323;SDS011;4199;50.802;6.772;2023-05-10T10:26:55;1.60;;;1.50;;
8323;SDS011;4199;50.802;6.772;2023-05-10T10:29:23;1.80;;;1.67;;
8323;SDS011;4199;50.802;6.772;2023-05-10T10:32:07;1.30;;;1.30;;
8323;SDS011;4199;50.802;6.772;2023-05-10T10:34:35;11.67;;;10.30;;
8323;SDS011;4199;50.802;6.772;2023-05-10T10:37:05;1.43;;;1.40;;
8323;SDS011;4199;50.802;6.772;2023-05-10T10:39:32;0.90;;;0.90;;
8323;SDS011;4199;50.802;6.772;2023-05-10T10:41:58;1.10;;;1.10;;
8323;SDS011;4199;50.802;6.772;2023-05-10T10:57:27;1.50;;;1.50;;
8323;SDS011;4199;50.802;6.772;2023-05-10T11:10:20;2.20;;;2.10;;
8323;SDS011;4199;50.802;6.772;2023-05-10T11:15:29;1.23;;;1.23;;
8323;SDS011;4199;50.802;6.772;2023-05-10T11:17:56;1.57;;;1.30;;
8323;SDS011;4199;50.802;6.772;2023-05-10T11:20:22;2.00;;;1.33;;
8323;SDS011;4199;50.802;6.772;2023-05-10T11:22:53;1.50;;;1.50;;
8323;SDS011;4199;50.802;6.772;2023-05-10T11:25:22;1.30;;;1.20;;
8323;SDS011;4199;50.802;6.772;2023-05-10T11:27:52;1.30;;;1.30;;
8323;SDS011;4199;50.802;6.772;2023-05-10T11:30:18;1.20;;;1.20;;
8323;SDS011;4199;50.802;6.772;2023-05-10T11:32:45;1.20;;;1.20;;
8323;SDS011;4199;50.802;6.772;2023-05-10T11:35:12;0.90;;;0.90;;
8323;SDS011;4199;50.802;6.772;2023-05-10T11:37:38;0.97;;;0.97;;
8323;SDS011;4199;50.802;6.772;2023-05-10T11:40:08;1.00;;;1.00;;
8323;SDS011;4199;50.802;6.772;2023-05-10T11:42:36;0.90;;;0.90;;
8323;SDS011;4199;50.802;6.772;2023-05-10T11:45:03;0.80;;;0.80;;
8323;SDS011;4199;50.802;6.772;2023-05-10T11:47:30;1.00;;;1.00;;
8323;SDS011;4199;50.802;6.772;2023-05-10T11:49:56;1.10;;;1.00;;
8323;SDS011;4199;50.802;6.772;2023-05-10T11:52:23;0.90;;;0.90;;
8323;SDS011;4199;50.802;6.772;2023-05-10T11:54:53;1.13;;;0.90;;
8323;SDS011;4199;50.802;6.772;2023-05-10T11:57:20;0.90;;;0.90;;
8323;SDS011;4199;50.802;6.772;2023-05-10T11:59:47;0.90;;;0.90;;
8323;SDS011;4199;50.802;6.772;2023-05-10T12:02:13;1.23;;;0.73;;
8323;SDS011;4199;50.802;6.772;2023-05-10T12:04:41;2.30;;;2.10;;
8323;SDS011;4199;50.802;6.772;2023-05-10T12:07:07;0.80;;;0.80;;
8323;SDS011;4199;50.802;6.772;2023-05-10T12:09:34;1.20;;;1.20;;
8323;SDS011;4199;50.802;6.772;2023-05-10T12:12:09;1.20;;;1.10;;
8323;SDS011;4199;50.802;6.772;2023-05-10T12:14:36;1.73;;;1.10;;
8323;SDS011;4199;50.802;6.772;2023-05-10T12:17:02;1.40;;;1.30;;
8323;SDS011;4199;50.802;6.772;2023-05-10T12:19:36;1.43;;;1.33;;
8323;SDS011;4199;50.802;6.772;2023-05-10T12:22:04;1.47;;;1.37;;
8323;SDS011;4199;50.802;6.772;2023-05-10T12:24:30;1.33;;;1.30;;
8323;SDS011;4199;50.802;6.772;2023-05-10T12:26:57;1.53;;;1.43;;
8323;SDS011;4199;50.802;6.772;2023-05-10T12:29:23;1.30;;;1.30;;
8323;SDS011;4199;50.802;6.772;2023-05-10T12:31:53;1.30;;;1.30;;
8323;SDS011;4199;50.802;6.772;2023-05-10T12:34:26;1.60;;;1.50;;
8323;SDS011;4199;50.802;6.772;2023-05-10T12:36:53;1.60;;;1.50;;
8323;SDS011;4199;50.802;6.772;2023-05-10T12:39:19;1.20;;;1.13;;
8323;SDS011;4199;50.802;6.772;2023-05-10T12:41:46;1.40;;;1.30;;
8323;SDS011;4199;50.802;6.772;2023-05-10T12:44:12;16.23;;;13.80;;
8323;SDS011;4199;50.802;6.772;2023-05-10T12:46:38;6.80;;;5.90;;
8323;SDS011;4199;50.802;6.772;2023-05-10T12:49:05;2.27;;;1.33;;
8323;SDS011;4199;50.802;6.772;2023-05-10T12:51:34;1.90;;;1.17;;
8323;SDS011;4199;50.802;6.772;2023-05-10T12:54:02;1.97;;;1.40;;
8323;SDS011;4199;50.802;6.772;2023-05-10T12:56:28;1.40;;;1.30;;
8323;SDS011;4199;50.802;6.772;2023-05-10T12:58:57;1.43;;;1.33;;
8323;SDS011;4199;50.802;6.772;2023-05-10T13:01:23;1.50;;;1.40;;
8323;SDS011;4199;50.802;6.772;2023-05-10T13:03:49;1.40;;;1.30;;
8323;SDS011;4199;50.802;6.772;2023-05-10T13:06:16;1.47;;;1.23;;
8323;SDS011;4199;50.802;6.772;2023-05-10T13:08:42;1.50;;;1.40;;
8323;SDS011;4199;50.802;6.772;2023-05-10T13:11:09;2.63;;;1.40;;
8323;SDS011;4199;50.802;6.772;2023-05-10T13:13:35;3.10;;;1.20;;
8323;SDS011;4199;50.802;6.772;2023-05-10T13:16:01;1.50;;;1.40;;
8323;SDS011;4199;50.802;6.772;2023-05-10T13:18:28;1.20;;;1.10;;
8323;SDS011;4199;50.802;6.772;2023-05-10T13:20:54;3.37;;;1.20;;
8323;SDS011;4199;50.802;6.772;2023-05-10T13:23:21;2.17;;;1.10;;
8323;SDS011;4199;50.802;6.772;2023-05-10T13:25:48;1.13;;;1.13;;
8323;SDS011;4199;50.802;6.772;2023-05-10T13:28:14;2.27;;;1.17;;
8323;SDS011;4199;50.802;6.772;2023-05-10T13:30:40;1.13;;;1.07;;
8323;SDS011;4199;50.802;6.772;2023-05-10T13:33:07;1.20;;;1.10;;
8323;SDS011;4199;50.802;6.772;2023-05-10T13:35:33;1.30;;;1.00;;
8323;SDS011;4199;50.802;6.772;2023-05-10T13:37:59;1.23;;;1.13;;
8323;SDS011;4199;50.802;6.772;2023-05-10T13:40:26;2.07;;;0.90;;
8323;SDS011;4199;50.802;6.772;2023-05-10T13:42:52;1.10;;;1.00;;
8323;SDS011;4199;50.802;6.772;2023-05-10T13:45:19;0.90;;;0.90;;
8323;SDS011;4199;50.802;6.772;2023-05-10T13:47:45;2.27;;;1.87;;
8323;SDS011;4199;50.802;6.772;2023-05-10T13:50:12;2.47;;;2.27;;
8323;SDS011;4199;50.802;6.772;2023-05-10T13:52:38;1.60;;;1.50;;
8323;SDS011;4199;50.802;6.772;2023-05-10T13:55:04;2.17;;;1.70;;
8323;SDS011;4199;50.802;6.772;2023-05-10T13:57:31;3.40;;;1.60;;
8323;SDS011;4199;50.802;6.772;2023-05-10T13:59:57;3.47;;;1.60;;
8323;SDS011;4199;50.802;6.772;2023-05-10T14:02:24;1.80;;;1.70;;
8323;SDS011;4199;50.802;6.772;2023-05-10T14:04:51;1.57;;;1.47;;
8323;SDS011;4199;50.802;6.772;2023-05-10T14:07:17;1.37;;;1.27;;
8323;SDS011;4199;50.802;6.772;2023-05-10T14:09:44;1.30;;;1.20;;
8323;SDS011;4199;50.802;6.772;2023-05-10T14:12:10;1.20;;;1.10;;
8323;SDS011;4199;50.802;6.772;2023-05-10T14:14:37;1.60;;;1.30;;
8323;SDS011;4199;50.802;6.772;2023-05-10T14:17:03;1.37;;;1.30;;
8323;SDS011;4199;50.802;6.772;2023-05-10T14:19:30;2.00;;;1.40;;
8323;SDS011;4199;50.802;6.772;2023-05-10T14:21:58;1.67;;;1.57;;
8323;SDS011;4199;50.802;6.772;2023-05-10T14:24:24;1.60;;;1.50;;
8323;SDS011;4199;50.802;6.772;2023-05-10T14:26:51;4.17;;;2.80;;
8323;SDS011;4199;50.802;6.772;2023-05-10T14:29:20;1.50;;;1.40;;
8323;SDS011;4199;50.802;6.772;2023-05-10T14:31:46;1.50;;;1.40;;
8323;SDS011;4199;50.802;6.772;2023-05-10T14:34:13;1.80;;;1.70;;
8323;SDS011;4199;50.802;6.772;2023-05-10T14:36:39;1.87;;;1.77;;
8323;SDS011;4199;50.802;6.772;2023-05-10T14:39:06;1.50;;;1.50;;
8323;SDS011;4199;50.802;6.772;2023-05-10T14:41:32;1.80;;;1.70;;
8323;SDS011;4199;50.802;6.772;2023-05-10T14:43:59;1.70;;;1.60;;
8323;SDS011;4199;50.802;6.772;2023-05-10T14:46:25;1.50;;;1.40;;
8323;SDS011;4199;50.802;6.772;2023-05-10T14:48:52;1.65;;;1.45;;
8323;SDS011;4199;50.802;6.772;2023-05-10T14:51:18;2.40;;;1.50;;
8323;SDS011;4199;50.802;6.772;2023-05-10T14:53:50;1.88;;;1.77;;
8323;SDS011;4199;50.802;6.772;2023-05-10T14:56:17;1.70;;;1.60;;
8323;SDS011;4199;50.802;6.772;2023-05-10T14:58:43;1.88;;;1.77;;
8323;SDS011;4199;50.802;6.772;2023-05-10T15:01:09;1.98;;;1.60;;
8323;SDS011;4199;50.802;6.772;2023-05-10T15:03:36;1.65;;;1.55;;
8323;SDS011;4199;50.802;6.772;2023-05-10T15:06:03;2.55;;;1.95;;
8323;SDS011;4199;50.802;6.772;2023-05-10T15:08:30;3.67;;;1.98;;
8323;SDS011;4199;50.802;6.772;2023-05-10T15:10:56;1.95;;;1.85;;
8323;SDS011;4199;50.802;6.772;2023-05-10T15:13:23;1.80;;;1.70;;
8323;SDS011;4199;50.802;6.772;2023-05-10T15:15:49;1.77;;;1.60;;
8323;SDS011;4199;50.802;6.772;2023-05-10T15:18:16;4.47;;;4.07;;
8323;SDS011;4199;50.802;6.772;2023-05-10T15:20:46;3.20;;;2.28;;
8323;SDS011;4199;50.802;6.772;2023-05-10T15:23:12;1.90;;;1.80;;
8323;SDS011;4199;50.802;6.772;2023-05-10T15:25:38;2.13;;;1.80;;
8323;SDS011;4199;50.802;6.772;2023-05-10T15:28:05;1.70;;;1.60;;
8323;SDS011;4199;50.802;6.772;2023-05-10T15:30:32;1.95;;;1.85;;
8323;SDS011;4199;50.802;6.772;2023-05-10T15:32:59;3.88;;;3.55;;
8323;SDS011;4199;50.802;6.772;2023-05-10T15:35:26;2.40;;;2.20;;
8323;SDS011;4199;50.802;6.772;2023-05-10T15:37:52;1.70;;;1.60;;
8323;SDS011;4199;50.802;6.772;2023-05-10T15:40:18;2.03;;;1.92;;
8323;SDS011;4199;50.802;6.772;2023-05-10T15:42:45;1.92;;;1.83;;
8323;SDS011;4199;50.802;6.772;2023-05-10T15:45:11;2.10;;;2.00;;
8323;SDS011;4199;50.802;6.772;2023-05-10T15:47:38;2.20;;;2.10;;
8323;SDS011;4199;50.802;6.772;2023-05-10T15:50:06;2.50;;;2.30;;
8323;SDS011;4199;50.802;6.772;2023-05-10T15:52:32;2.63;;;2.42;;
8323;SDS011;4199;50.802;6.772;2023-05-10T15:54:58;2.30;;;2.10;;